Time;durP1;ratioP1;P1;durP2;ratioP2;P2;SDS_P1;SDS_P2;PMS_P1;PMS_P2;Temp;Humidity;BMP_temperature;BMP_pressure;BME280_temperature;BME280_humidity;BME280_pressure;Samples;Min_cycle;Max_cycle;Signal;HPM_P1;HPM_P2
2022/10/24 00:02:23;;;;;;;3.20;0.70;;;;;;;17.25;100.00;98339.59;5030107;28;20083;-75
2022/10/24 00:04:48;;;;;;;7.40;0.90;;;;;;;17.37;100.00;98353.09;5025380;28;20517;-75
2022/10/24 00:07:14;;;;;;;6.25;0.90;;;;;;;17.26;100.00;98346.69;5019549;28;20025;-75
2022/10/24 00:09:41;;;;;;;1.92;0.65;;;;;;;17.27;100.00;98351.91;5037237;28;20479;-75
2022/10/24 00:12:06;;;;;;;3.05;0.70;;;;;;;17.13;100.00;98330.72;5033206;28;20405;-72
2022/10/24 00:14:33;;;;;;;7.70;0.90;;;;;;;17.08;100.00;98350.59;5018181;28;20041;-75
2022/10/24 00:16:59;;;;;;;5.20;0.90;;;;;;;16.90;100.00;98323.63;5024286;28;20797;-75
2022/10/24 00:19:24;;;;;;;6.40;0.80;;;;;;;16.87;100.00;98330.41;5015966;28;20128;-75
2022/10/24 00:21:50;;;;;;;5.55;1.10;;;;;;;16.93;100.00;98343.09;5024558;28;20032;-72
2022/10/24 00:24:15;;;;;;;5.03;0.90;;;;;;;16.89;100.00;98341.94;5029073;28;20029;-75
2022/10/24 00:26:41;;;;;;;7.85;0.98;;;;;;;16.74;100.00;98356.22;5036437;28;20115;-75
2022/10/24 00:29:06;;;;;;;10.07;1.45;;;;;;;16.78;100.00;98356.56;5019953;28;20026;-75
2022/10/24 00:31:32;;;;;;;6.00;0.90;;;;;;;16.69;100.00;98350.69;5018708;28;20491;-75
2022/10/24 00:33:58;;;;;;;6.93;0.93;;;;;;;16.61;100.00;98368.34;5039047;28;20390;-75
2022/10/24 00:36:25;;;;;;;4.05;0.93;;;;;;;16.37;100.00;98356.84;5030257;28;20582;-73
2022/10/24 00:38:50;;;;;;;3.50;0.63;;;;;;;16.32;100.00;98375.88;5032007;28;20136;-75
2022/10/24 00:41:22;;;;;;;3.55;0.73;;;;;;;16.13;100.00;98366.28;5020338;28;20100;-75
2022/10/24 00:43:47;;;;;;;4.30;1.00;;;;;;;15.95;100.00;98356.47;5022218;28;20026;-75
2022/10/24 00:46:13;;;;;;;3.83;0.70;;;;;;;16.12;100.00;98370.94;5024816;28;20051;-75
2022/10/24 00:48:52;;;;;;;5.30;0.80;;;;;;;16.12;100.00;98353.72;5015900;28;20072;-75
2022/10/24 00:51:18;;;;;;;3.95;0.85;;;;;;;16.24;100.00;98384.47;5033255;28;20021;-72
2022/10/24 00:53:46;;;;;;;11.07;1.08;;;;;;;16.34;100.00;98376.41;5024084;28;20037;-74
2022/10/24 00:56:15;;;;;;;8.98;1.08;;;;;;;16.37;100.00;98373.22;5020616;28;20022;-75
2022/10/24 00:58:43;;;;;;;3.97;0.77;;;;;;;16.40;100.00;98364.50;5024133;28;20049;-75
2022/10/24 01:01:09;;;;;;;3.90;0.80;;;;;;;16.34;100.00;98368.22;5033513;28;20029;-74
2022/10/24 01:03:35;;;;;;;4.90;0.60;;;;;;;16.30;100.00;98356.19;5024926;28;20036;-75
2022/10/24 01:06:17;;;;;;;4.88;1.27;;;;;;;16.22;100.00;98359.34;5016916;28;20029;-75
2022/10/24 01:09:06;;;;;;;4.43;0.95;;;;;;;16.04;100.00;98373.25;5018400;28;20400;-75
2022/10/24 01:11:31;;;;;;;4.50;0.87;;;;;;;15.85;100.00;98372.66;5026169;28;20402;-75
2022/10/24 01:14:02;;;;;;;3.67;0.65;;;;;;;15.70;100.00;98376.00;5025851;28;20085;-74
2022/10/24 01:16:49;;;;;;;3.97;0.98;;;;;;;15.43;100.00;98378.47;5031085;28;20080;-76
2022/10/24 01:19:33;;;;;;;1.98;0.60;;;;;;;15.17;100.00;98367.13;5027876;28;20029;-76
2022/10/24 01:22:06;;;;;;;2.63;1.00;;;;;;;15.04;100.00;98359.25;5037949;28;20049;-73
2022/10/24 01:24:59;;;;;;;6.00;1.52;;;;;;;14.99;100.00;98357.25;5036699;28;20507;-75
2022/10/24 01:27:55;;;;;;;3.80;0.98;;;;;;;14.98;100.00;98354.75;5035284;28;21490;-75
2022/10/24 01:30:21;;;;;;;9.60;1.13;;;;;;;15.04;100.00;98348.34;5018515;28;20030;-75
2022/10/24 01:32:58;;;;;;;3.22;0.95;;;;;;;15.17;100.00;98361.66;5026396;28;20028;-74
2022/10/24 01:35:41;;;;;;;9.27;1.80;;;;;;;15.13;100.00;98355.84;5031398;28;20075;-75
2022/10/24 01:38:16;;;;;;;13.45;1.92;;;;;;;15.18;100.00;98354.31;5026988;28;20036;-72
2022/10/24 01:40:47;;;;;;;8.52;1.05;;;;;;;15.21;100.00;98332.03;5016015;28;20034;-75
2022/10/24 01:43:16;;;;;;;3.10;0.93;;;;;;;15.30;100.00;98335.97;5027531;28;20061;-75
2022/10/24 01:45:44;;;;;;;;;;;;;;;15.40;100.00;98349.78;5025533;28;20028;-73
2022/10/24 01:48:14;;;;;;;1.92;0.93;;;;;;;15.27;100.00;98355.56;5028064;28;19913;-75
2022/10/24 01:50:43;;;;;;;6.53;0.80;;;;;;;15.28;100.00;98359.97;5027367;28;20052;-75
2022/10/24 01:53:10;;;;;;;;;;;;;;;15.24;100.00;98369.69;5039276;28;20112;-75
2022/10/24 01:55:37;;;;;;;2.03;0.73;;;;;;;15.13;100.00;98331.34;5040669;28;20013;-72
2022/10/24 01:58:03;;;;;;;8.02;1.00;;;;;;;15.10;100.00;98329.09;5034836;28;20029;-73
2022/10/24 02:00:28;;;;;;;6.60;0.93;;;;;;;15.33;100.00;98338.25;5028618;28;20029;-75
2022/10/24 02:03:25;;;;;;;5.05;1.00;;;;;;;15.59;100.00;98341.38;5021820;28;20028;-75
2022/10/24 02:05:58;;;;;;;4.20;1.13;;;;;;;15.72;100.00;98338.38;5023536;28;20495;-75
2022/10/24 02:08:37;;;;;;;6.22;1.48;;;;;;;15.72;100.00;98336.47;5027245;28;20029;-74
2022/10/24 02:11:06;;;;;;;7.57;1.23;;;;;;;15.76;100.00;98340.34;5014568;28;20044;-75
2022/10/24 02:13:44;;;;;;;4.97;0.98;;;;;;;15.84;100.00;98341.84;5042016;28;20243;-75
2022/10/24 02:16:11;;;;;;;3.75;1.40;;;;;;;15.92;100.00;98352.31;5020673;28;20032;-74
2022/10/24 02:18:38;;;;;;;5.63;1.20;;;;;;;15.99;100.00;98347.53;5022082;28;20034;-72
2022/10/24 02:21:22;;;;;;;3.28;0.90;;;;;;;16.04;100.00;98362.34;5037841;28;20059;-75
2022/10/24 02:24:01;;;;;;;6.90;1.30;;;;;;;15.84;100.00;98346.47;5020005;28;20029;-75
2022/10/24 02:26:48;;;;;;;5.20;0.90;;;;;;;15.75;100.00;98344.16;5030208;28;20438;-75
2022/10/24 02:29:18;;;;;;;4.65;1.27;;;;;;;15.93;100.00;98356.72;5025415;28;20076;-75
2022/10/24 02:31:51;;;;;;;5.70;0.88;;;;;;;16.12;100.00;98346.38;5032655;28;20490;-75
2022/10/24 02:34:18;;;;;;;5.05;0.93;;;;;;;16.25;100.00;98336.19;5028773;28;20522;-76
2022/10/24 02:36:47;;;;;;;11.55;1.15;;;;;;;16.15;100.00;98320.47;5038990;28;20036;-75
2022/10/24 02:39:14;;;;;;;;;;;;;;;16.32;100.00;98336.81;5035247;28;20025;-76
2022/10/24 02:41:42;;;;;;;6.78;1.30;;;;;;;16.27;100.00;98325.81;5044069;28;20005;-73
2022/10/24 02:44:08;;;;;;;7.40;1.00;;;;;;;16.28;100.00;98332.94;5033406;28;20033;-75
2022/10/24 02:46:35;;;;;;;7.63;1.00;;;;;;;16.35;100.00;98331.69;5032224;28;20123;-74
2022/10/24 02:49:02;;;;;;;7.50;1.30;;;;;;;16.34;100.00;98313.63;5046910;28;20041;-75
2022/10/24 02:51:34;;;;;;;5.85;0.90;;;;;;;16.34;100.00;98335.47;5045035;28;20051;-73
2022/10/24 02:54:00;;;;;;;3.25;0.75;;;;;;;16.37;100.00;98328.69;5043451;28;20029;-76
2022/10/24 02:56:26;;;;;;;3.33;0.98;;;;;;;16.34;100.00;98319.09;5047358;28;20033;-76
2022/10/24 02:58:51;;;;;;;2.67;0.77;;;;;;;16.32;100.00;98318.53;5063061;28;20113;-75
2022/10/24 03:01:17;;;;;;;4.90;0.82;;;;;;;16.32;100.00;98309.50;5040969;28;20014;-76
2022/10/24 03:03:42;;;;;;;6.18;1.10;;;;;;;16.37;100.00;98315.03;5039897;28;20029;-73
2022/10/24 03:06:07;;;;;;;5.57;0.93;;;;;;;16.41;100.00;98302.53;5038535;28;20500;-75
2022/10/24 03:08:33;;;;;;;8.05;1.20;;;;;;;16.41;100.00;98297.91;5057090;28;20045;-73
2022/10/24 03:10:59;;;;;;;6.55;1.15;;;;;;;16.41;100.00;98313.47;5041990;28;20087;-74
2022/10/24 03:13:24;;;;;;;7.63;1.10;;;;;;;16.30;100.00;98307.03;5047403;28;20029;-74
2022/10/24 03:15:49;;;;;;;6.35;1.10;;;;;;;16.33;100.00;98297.53;5045576;28;20053;-75
2022/10/24 03:18:15;;;;;;;4.97;1.40;;;;;;;16.39;100.00;98307.41;5037486;28;20032;-75
2022/10/24 03:20:40;;;;;;;7.55;1.58;;;;;;;16.27;100.00;98332.13;5042448;28;20021;-73
2022/10/24 03:23:06;;;;;;;3.97;1.45;;;;;;;16.28;100.00;98333.75;5020131;28;20029;-75
2022/10/24 03:25:31;;;;;;;10.23;1.10;;;;;;;16.16;100.00;98312.00;5028790;28;20037;-75
2022/10/24 03:27:56;;;;;;;6.70;0.95;;;;;;;16.11;100.00;98325.63;5031269;28;20554;-74
2022/10/24 03:30:22;;;;;;;7.43;1.30;;;;;;;16.09;100.00;98338.69;5023149;28;20033;-73
2022/10/24 03:32:47;;;;;;;4.18;1.10;;;;;;;16.15;100.00;98348.59;5019775;28;20475;-75
2022/10/24 03:35:12;;;;;;;4.88;0.98;;;;;;;16.04;100.00;98314.06;5019522;28;20041;-75
2022/10/24 03:37:38;;;;;;;5.45;1.17;;;;;;;16.19;100.00;98329.78;5030063;28;20128;-76
2022/10/24 03:40:03;;;;;;;15.38;1.45;;;;;;;16.27;100.00;98353.97;5025302;28;20029;-76
2022/10/24 03:42:29;;;;;;;7.43;1.23;;;;;;;16.30;100.00;98344.44;5027198;28;20029;-74
2022/10/24 03:44:54;;;;;;;9.65;1.05;;;;;;;16.38;100.00;98355.75;5028383;28;21690;-75
2022/10/24 03:47:20;;;;;;;11.27;1.58;;;;;;;16.42;100.00;98359.59;5025942;28;20076;-75
2022/10/24 03:49:45;;;;;;;10.27;1.40;;;;;;;16.31;100.00;98337.88;5033644;28;20027;-74
2022/10/24 03:52:11;;;;;;;8.02;1.50;;;;;;;16.37;100.00;98345.06;5024510;28;20052;-75
2022/10/24 03:54:37;;;;;;;6.95;1.27;;;;;;;16.31;100.00;98344.16;5045116;28;20037;-72
2022/10/24 03:57:03;;;;;;;10.15;1.30;;;;;;;16.24;100.00;98323.59;5025732;28;20063;-75
2022/10/24 03:59:28;;;;;;;7.95;1.45;;;;;;;16.41;100.00;98327.94;5026797;28;20072;-73
2022/10/24 04:01:54;;;;;;;3.25;1.10;;;;;;;16.48;100.00;98335.94;5021441;28;20029;-71
2022/10/24 04:04:19;;;;;;;5.88;1.63;;;;;;;16.47;100.00;98338.91;5024002;28;20030;-72
2022/10/24 04:06:44;;;;;;;11.48;1.58;;;;;;;16.49;100.00;98344.97;5022949;28;20442;-73
2022/10/24 04:09:10;;;;;;;6.93;1.40;;;;;;;16.47;100.00;98355.31;5013866;28;20029;-73
2022/10/24 04:11:35;;;;;;;7.75;1.50;;;;;;;16.37;100.00;98340.44;5014250;28;20758;-72
2022/10/24 04:14:01;;;;;;;9.52;1.40;;;;;;;16.44;100.00;98357.44;5013179;28;20073;-72
2022/10/24 04:16:26;;;;;;;6.43;1.85;;;;;;;16.31;100.00;98329.69;5022249;28;20491;-73
2022/10/24 04:18:52;;;;;;;9.07;1.48;;;;;;;16.43;100.00;98353.09;5020384;28;21279;-72
2022/10/24 04:21:18;;;;;;;5.53;1.60;;;;;;;16.52;100.00;98353.47;5024902;28;20033;-72
2022/10/24 04:23:43;;;;;;;6.53;1.92;;;;;;;16.39;100.00;98343.72;5029099;28;20068;-73
2022/10/24 04:26:16;;;;;;;10.73;1.75;;;;;;;16.36;100.00;98360.63;5024131;28;20098;-72
2022/10/24 04:28:42;;;;;;;16.35;2.17;;;;;;;16.45;100.00;98366.47;5019529;28;20426;-71
2022/10/24 04:31:08;;;;;;;9.65;1.48;;;;;;;16.42;100.00;98358.78;5012192;28;20025;-72
2022/10/24 04:33:35;;;;;;;12.95;1.77;;;;;;;16.31;100.00;98357.00;5022994;28;20033;-73
2022/10/24 04:36:00;;;;;;;6.53;1.23;;;;;;;16.34;100.00;98359.22;5025099;28;20422;-72
2022/10/24 04:38:26;;;;;;;7.45;1.55;;;;;;;16.09;100.00;98326.94;5015069;28;20021;-72
2022/10/24 04:40:52;;;;;;;13.00;2.03;;;;;;;16.10;100.00;98342.22;5022519;28;20039;-72
2022/10/24 04:43:19;;;;;;;7.93;1.88;;;;;;;16.17;100.00;98362.81;5043007;28;20028;-72
2022/10/24 04:45:45;;;;;;;11.38;1.75;;;;;;;16.01;100.00;98336.38;5021537;28;20041;-72
2022/10/24 04:48:11;;;;;;;11.95;1.73;;;;;;;16.12;100.00;98340.91;5018592;28;20030;-72
2022/10/24 04:50:39;;;;;;;8.10;1.85;;;;;;;16.29;100.00;98343.59;5013479;28;20030;-73
2022/10/24 04:53:04;;;;;;;9.27;1.95;;;;;;;16.17;100.00;98332.78;5043310;28;20395;-73
2022/10/24 04:55:29;;;;;;;12.38;1.65;;;;;;;16.24;100.00;98329.88;5019469;28;20030;-75
2022/10/24 04:57:55;;;;;;;7.40;1.83;;;;;;;16.26;100.00;98322.25;5012468;28;20121;-76
2022/10/24 05:00:20;;;;;;;8.30;1.73;;;;;;;16.04;100.00;98308.59;5017065;28;20059;-75
2022/10/24 05:02:45;;;;;;;7.18;2.10;;;;;;;16.15;100.00;98318.56;5018559;28;20044;-76
2022/10/24 05:05:11;;;;;;;9.90;1.77;;;;;;;16.19;100.00;98332.53;5017288;28;20374;-71
2022/10/24 05:07:36;;;;;;;6.28;1.95;;;;;;;16.25;100.00;98336.19;5037959;28;20140;-74
2022/10/24 05:10:03;;;;;;;7.63;1.60;;;;;;;16.17;100.00;98345.63;5025898;28;20022;-72
2022/10/24 05:12:29;;;;;;;10.20;1.80;;;;;;;16.15;100.00;98345.84;5019494;28;20045;-74
2022/10/24 05:14:54;;;;;;;8.55;1.52;;;;;;;16.17;100.00;98342.88;5021372;28;20072;-73
2022/10/24 05:17:19;;;;;;;7.05;1.30;;;;;;;16.14;100.00;98357.03;5022345;28;20029;-73
2022/10/24 05:19:45;;;;;;;5.53;1.52;;;;;;;16.14;100.00;98352.41;5025428;28;20115;-73
2022/10/24 05:22:10;;;;;;;12.68;1.73;;;;;;;16.35;100.00;98345.34;5022330;28;20048;-73
2022/10/24 05:24:35;;;;;;;6.50;1.50;;;;;;;16.27;100.00;98334.84;5028286;28;20056;-76
2022/10/24 05:27:01;;;;;;;9.25;2.30;;;;;;;16.37;100.00;98315.88;5041954;28;20057;-75
2022/10/24 05:29:26;;;;;;;6.45;1.70;;;;;;;16.44;100.00;98313.75;5020817;28;20471;-70
2022/10/24 05:31:51;;;;;;;6.65;1.70;;;;;;;16.46;100.00;98309.97;5023645;28;20037;-70
2022/10/24 05:34:17;;;;;;;15.10;1.80;;;;;;;16.59;100.00;98323.25;5019758;28;20026;-77
2022/10/24 05:36:42;;;;;;;9.32;1.40;;;;;;;16.60;100.00;98331.16;5020297;28;20110;-76
2022/10/24 05:39:07;;;;;;;16.83;2.05;;;;;;;16.70;100.00;98346.03;5020515;28;20061;-75
2022/10/24 05:41:33;;;;;;;11.88;2.20;;;;;;;16.69;100.00;98363.50;5015107;28;20041;-73
2022/10/24 05:43:58;;;;;;;12.50;1.90;;;;;;;16.53;100.00;98359.75;5016784;28;20032;-72
2022/10/24 05:46:24;;;;;;;10.63;2.05;;;;;;;16.32;100.00;98343.13;5010830;28;20033;-71
2022/10/24 05:48:49;;;;;;;7.43;1.98;;;;;;;16.27;100.00;98323.06;5021555;28;20029;-72
2022/10/24 05:51:14;;;;;;;9.82;1.80;;;;;;;16.25;100.00;98372.47;5018743;28;20508;-73
2022/10/24 05:53:39;;;;;;;12.50;1.70;;;;;;;16.19;100.00;98381.66;5023722;28;20025;-72
2022/10/24 05:56:05;;;;;;;6.40;1.85;;;;;;;15.99;100.00;98420.38;5022834;28;20057;-71
2022/10/24 05:58:30;;;;;;;11.32;2.05;;;;;;;15.76;100.00;98454.09;5023045;28;20033;-71
2022/10/24 06:00:56;;;;;;;5.97;1.40;;;;;;;15.45;100.00;98464.38;5028024;28;20098;-73
2022/10/24 06:03:21;;;;;;;11.00;2.38;;;;;;;15.24;100.00;98454.16;5023888;28;20368;-74
2022/10/24 06:05:47;;;;;;;6.40;2.30;;;;;;;15.24;100.00;98419.56;5020854;28;20567;-73
2022/10/24 06:08:12;;;;;;;12.38;2.33;;;;;;;15.21;100.00;98419.22;5018200;28;20044;-75
2022/10/24 06:10:38;;;;;;;13.50;2.05;;;;;;;15.00;100.00;98456.94;5027684;28;20033;-71
2022/10/24 06:13:03;;;;;;;9.02;2.20;;;;;;;15.03;100.00;98470.09;5018882;28;20065;-72
2022/10/24 06:15:29;;;;;;;10.85;1.80;;;;;;;15.01;100.00;98455.91;5045217;28;20120;-72
2022/10/24 06:17:54;;;;;;;11.07;2.22;;;;;;;14.98;100.00;98472.69;5030772;28;20032;-73
2022/10/24 06:20:19;;;;;;;10.75;2.03;;;;;;;14.96;100.00;98474.88;5024939;28;20021;-72
2022/10/24 06:22:45;;;;;;;9.38;1.90;;;;;;;14.97;100.00;98467.50;5021028;28;20029;-73
2022/10/24 06:25:12;;;;;;;13.40;2.40;;;;;;;14.99;100.00;98488.00;5026290;28;20072;-72
2022/10/24 06:27:38;;;;;;;7.93;2.72;;;;;;;15.05;100.00;98492.47;5023638;28;20108;-72
2022/10/24 06:30:05;;;;;;;8.57;2.22;;;;;;;14.90;100.00;98470.34;5030379;28;20037;-72
2022/10/24 06:32:30;;;;;;;9.45;2.20;;;;;;;15.03;100.00;98429.22;5022230;28;20509;-70
2022/10/24 06:34:55;;;;;;;11.57;2.47;;;;;;;14.89;100.00;98441.47;5021406;28;20040;-72
2022/10/24 06:37:21;;;;;;;12.25;2.20;;;;;;;14.73;100.00;98409.53;5020025;28;20079;-74
2022/10/24 06:39:46;;;;;;;11.55;2.95;;;;;;;14.76;100.00;98445.28;5026493;28;20083;-74
2022/10/24 06:42:12;;;;;;;12.60;2.70;;;;;;;14.85;100.00;98443.81;5028348;28;20056;-73
2022/10/24 06:44:37;;;;;;;10.52;2.40;;;;;;;14.95;100.00;98456.84;5022895;28;20033;-68
2022/10/24 06:47:03;;;;;;;9.90;2.60;;;;;;;14.84;100.00;98454.97;5024796;28;20025;-73
2022/10/24 06:49:28;;;;;;;12.88;2.70;;;;;;;14.89;100.00;98449.66;5028696;28;20056;-72
2022/10/24 06:51:54;;;;;;;8.85;2.47;;;;;;;15.06;100.00;98460.59;5040445;28;22015;-74
2022/10/24 06:54:20;;;;;;;9.93;3.00;;;;;;;15.07;100.00;98452.19;5019501;28;20021;-75
2022/10/24 06:56:45;;;;;;;8.98;2.38;;;;;;;15.17;100.00;98467.09;5028749;28;20120;-71
2022/10/24 06:59:14;;;;;;;6.72;1.95;;;;;;;15.22;100.00;98480.81;5025876;28;20063;-72
2022/10/24 07:01:39;;;;;;;8.88;2.05;;;;;;;15.22;100.00;98480.81;5027341;28;20419;-72
2022/10/24 07:04:05;;;;;;;15.00;2.97;;;;;;;15.27;100.00;98483.66;5023066;28;20068;-73
2022/10/24 07:06:31;;;;;;;8.35;2.40;;;;;;;15.25;100.00;98492.09;5028058;28;20040;-73
2022/10/24 07:08:58;;;;;;;7.65;1.63;;;;;;;15.29;100.00;98484.25;5023590;28;20052;-70
2022/10/24 07:11:24;;;;;;;10.57;2.28;;;;;;;15.28;100.00;98491.59;5024957;28;20034;-70
2022/10/24 07:13:50;;;;;;;13.52;2.15;;;;;;;15.26;100.00;98498.38;5023852;28;20114;-69
2022/10/24 07:16:16;;;;;;;9.88;2.13;;;;;;;15.30;100.00;98504.97;5028746;28;20057;-71
2022/10/24 07:18:41;;;;;;;8.75;2.20;;;;;;;15.28;100.00;98507.94;5023645;28;20117;-70
2022/10/24 07:21:11;;;;;;;7.97;2.33;;;;;;;15.29;100.00;98515.06;5023280;28;20076;-72
2022/10/24 07:23:37;;;;;;;14.32;2.33;;;;;;;15.23;100.00;98501.56;5015275;28;20030;-68
2022/10/24 07:26:08;;;;;;;8.27;2.42;;;;;;;15.21;100.00;98468.28;5033557;28;20028;-73
2022/10/24 07:28:35;;;;;;;4.47;1.40;;;;;;;15.25;100.00;98464.00;5018342;28;20064;-73
2022/10/24 07:31:01;;;;;;;5.82;1.33;;;;;;;15.25;100.00;98475.75;5022234;28;20437;-72
2022/10/24 07:33:27;;;;;;;12.43;1.70;;;;;;;15.22;100.00;98486.28;5023631;28;20041;-72
2022/10/24 07:35:52;;;;;;;6.68;2.42;;;;;;;15.28;100.00;98479.88;5023497;28;21251;-73
2022/10/24 07:38:17;;;;;;;9.57;2.45;;;;;;;15.27;100.00;98497.28;5027716;28;20108;-72
2022/10/24 07:40:43;;;;;;;7.00;1.88;;;;;;;15.33;100.00;98501.78;5021159;28;20503;-74
2022/10/24 07:43:08;;;;;;;10.15;1.55;;;;;;;15.28;100.00;98493.50;5023246;28;20625;-73
2022/10/24 07:45:34;;;;;;;9.00;2.00;;;;;;;15.28;100.00;98447.16;5038942;28;20030;-70
2022/10/24 07:47:59;;;;;;;14.07;2.75;;;;;;;15.33;100.00;98445.38;5020237;28;20036;-73
2022/10/24 07:50:26;;;;;;;7.68;1.80;;;;;;;15.46;100.00;98427.91;5032067;28;20049;-70
2022/10/24 07:52:51;;;;;;;8.60;1.70;;;;;;;15.52;100.00;98431.53;5029025;28;20021;-70
2022/10/24 07:55:17;;;;;;;10.13;1.85;;;;;;;15.57;100.00;98432.44;5023394;28;20506;-71
2022/10/24 07:57:42;;;;;;;10.73;1.98;;;;;;;15.57;100.00;98424.28;5022726;28;20033;-70
2022/10/24 08:00:08;;;;;;;9.60;1.90;;;;;;;15.56;100.00;98433.53;5022921;28;20116;-69
2022/10/24 08:02:34;;;;;;;6.80;1.75;;;;;;;15.53;100.00;98446.81;5018393;28;20026;-70
2022/10/24 08:04:59;;;;;;;9.27;2.08;;;;;;;15.45;100.00;98448.03;5029534;28;20037;-72
2022/10/24 08:07:25;;;;;;;7.80;1.83;;;;;;;15.49;100.00;98473.75;5021445;28;20079;-72
2022/10/24 08:09:50;;;;;;;14.13;2.13;;;;;;;15.50;100.00;98472.66;5022054;28;20044;-71
2022/10/24 08:12:16;;;;;;;6.25;1.27;;;;;;;15.59;100.00;98469.53;5025718;28;20096;-72
2022/10/24 08:14:42;;;;;;;9.82;2.20;;;;;;;15.53;100.00;98480.34;5026559;28;20518;-72
2022/10/24 08:17:09;;;;;;;11.38;1.90;;;;;;;15.73;100.00;98481.84;5025747;28;20100;-71
2022/10/24 08:19:35;;;;;;;6.53;1.63;;;;;;;15.82;100.00;98482.28;5020464;28;20472;-72
2022/10/24 08:22:01;;;;;;;10.90;1.67;;;;;;;15.83;100.00;98497.59;5019635;28;20088;-71
2022/10/24 08:24:27;;;;;;;12.05;1.58;;;;;;;15.76;100.00;98516.81;5024508;28;20068;-71
2022/10/24 08:26:55;;;;;;;9.98;2.20;;;;;;;15.73;100.00;98500.94;5023058;28;20431;-71
2022/10/24 08:29:24;;;;;;;9.07;1.73;;;;;;;15.81;100.00;98500.56;5024038;28;20022;-72
2022/10/24 08:31:51;;;;;;;12.00;1.73;;;;;;;15.83;100.00;98494.88;5022732;28;20057;-72
2022/10/24 08:34:18;;;;;;;9.63;1.80;;;;;;;15.87;100.00;98483.19;5023117;28;20432;-72
2022/10/24 08:36:44;;;;;;;8.20;2.28;;;;;;;15.85;100.00;98479.06;5020118;28;20033;-71
2022/10/24 08:39:09;;;;;;;11.85;2.00;;;;;;;15.94;100.00;98464.78;5020691;28;20435;-71
2022/10/24 08:41:38;;;;;;;8.50;1.98;;;;;;;16.02;100.00;98460.81;5024838;28;20091;-71
2022/10/24 08:44:15;;;;;;;7.00;1.55;;;;;;;16.06;100.00;98458.41;5018898;28;20021;-69
2022/10/24 08:46:47;;;;;;;6.55;1.88;;;;;;;16.12;100.00;98462.91;5018974;28;20072;-72
2022/10/24 08:49:22;;;;;;;4.65;1.98;;;;;;;16.32;100.00;98463.22;5029182;28;20560;-72
2022/10/24 08:51:56;;;;;;;8.77;1.70;;;;;;;16.29;100.00;98438.31;5017283;28;20385;-72
2022/10/24 08:54:28;;;;;;;12.07;1.55;;;;;;;16.60;100.00;98453.25;5018776;28;20052;-72
2022/10/24 08:56:56;;;;;;;5.80;1.45;;;;;;;16.60;100.00;98454.06;5003183;28;20069;-72
2022/10/24 08:59:24;;;;;;;10.77;1.98;;;;;;;16.81;100.00;98463.41;5005916;28;20026;-69
2022/10/24 09:02:04;;;;;;;8.68;1.60;;;;;;;16.74;100.00;98451.84;5006502;28;20777;-70
2022/10/24 09:04:38;;;;;;;7.85;1.35;;;;;;;16.68;100.00;98452.81;4998486;28;20030;-72
2022/10/24 09:07:03;;;;;;;3.50;1.38;;;;;;;16.59;100.00;98452.44;5002188;28;20030;-72
2022/10/24 09:09:44;;;;;;;7.55;1.65;;;;;;;16.55;100.00;98459.47;5003511;28;20519;-68
2022/10/24 09:12:12;;;;;;;6.43;1.35;;;;;;;16.54;100.00;98455.09;4999295;28;20048;-66
2022/10/24 09:14:40;;;;;;;7.93;1.65;;;;;;;16.52;100.00;98459.16;5006722;28;20093;-67
2022/10/24 09:17:15;;;;;;;5.90;1.40;;;;;;;16.37;100.00;98455.13;5008737;28;20040;-67
2022/10/24 09:19:45;;;;;;;5.72;1.42;;;;;;;16.33;100.00;98470.34;5002833;28;20029;-70
2022/10/24 09:22:12;;;;;;;4.55;1.10;;;;;;;16.30;100.00;98479.03;5003972;28;20021;-70
2022/10/24 09:24:46;;;;;;;9.90;1.60;;;;;;;16.26;100.00;98471.56;4999757;28;20022;-70
2022/10/24 09:27:19;;;;;;;7.55;1.35;;;;;;;16.32;100.00;98496.00;4996647;28;20030;-70
2022/10/24 09:29:44;;;;;;;4.43;1.40;;;;;;;16.30;100.00;98514.50;5005945;28;20038;-73
2022/10/24 09:32:20;;;;;;;10.18;1.77;;;;;;;16.29;100.00;98520.22;5013399;28;20028;-72
2022/10/24 09:34:46;;;;;;;6.65;1.60;;;;;;;16.10;100.00;98514.16;5006865;28;20399;-72
2022/10/24 09:37:34;;;;;;;6.38;1.60;;;;;;;16.13;100.00;98521.84;5009148;28;20018;-72
2022/10/24 09:40:23;;;;;;;6.15;1.17;;;;;;;16.16;100.00;98518.63;5005359;28;20028;-73
2022/10/24 09:42:50;;;;;;;5.53;1.33;;;;;;;16.15;100.00;98516.97;5021006;28;20034;-73
2022/10/24 09:45:28;;;;;;;6.70;1.40;;;;;;;16.10;100.00;98505.97;5011899;28;20086;-73
2022/10/24 09:48:00;;;;;;;4.18;1.35;;;;;;;16.08;100.00;98506.22;5015562;28;20041;-73
2022/10/24 09:50:26;;;;;;;7.07;1.75;;;;;;;16.06;100.00;98499.34;5015567;28;20034;-73
2022/10/24 09:52:56;;;;;;;8.10;1.77;;;;;;;15.93;100.00;98504.06;5024658;28;20021;-72
2022/10/24 09:55:24;;;;;;;3.63;1.40;;;;;;;15.97;100.00;98510.66;5021555;28;20091;-72
2022/10/24 09:57:52;;;;;;;4.25;1.20;;;;;;;15.99;100.00;98511.25;5028112;28;20069;-73
2022/10/24 10:00:25;;;;;;;9.27;1.75;;;;;;;16.04;100.00;98515.97;5011900;28;20038;-73
2022/10/24 10:03:05;;;;;;;7.18;1.20;;;;;;;16.08;100.00;98511.66;5009006;28;20030;-73
2022/10/24 10:05:48;;;;;;;6.45;1.30;;;;;;;16.12;100.00;98517.47;5010442;28;20038;-73
2022/10/24 10:08:29;;;;;;;4.68;1.20;;;;;;;16.06;100.00;98515.72;5011362;28;20030;-73
2022/10/24 10:11:06;;;;;;;6.18;1.60;;;;;;;16.09;100.00;98524.25;5010293;28;20116;-73
2022/10/24 10:13:37;;;;;;;10.10;1.90;;;;;;;16.18;100.00;98528.22;5012701;28;20049;-73
2022/10/24 10:16:04;;;;;;;8.93;2.08;;;;;;;16.22;100.00;98528.56;5006980;28;20037;-73
2022/10/24 10:18:38;;;;;;;9.35;2.60;;;;;;;16.30;100.00;98519.97;5006854;28;20543;-73
2022/10/24 10:21:07;;;;;;;9.18;2.45;;;;;;;16.38;100.00;98519.56;5002042;28;20056;-73
2022/10/24 10:23:36;;;;;;;12.40;2.42;;;;;;;16.30;100.00;98522.69;5020260;28;20030;-74
2022/10/24 10:26:20;;;;;;;8.10;1.92;;;;;;;16.28;100.00;98511.19;5009278;28;20052;-70
2022/10/24 10:29:18;;;;;;;6.47;2.05;;;;;;;16.41;100.00;98524.53;4996146;28;20109;-72
2022/10/24 10:31:46;;;;;;;11.80;1.55;;;;;;;16.72;100.00;98492.22;5004497;28;20037;-73
2022/10/24 10:34:30;;;;;;;9.90;1.70;;;;;;;16.79;100.00;98492.91;5003161;28;20026;-73
2022/10/24 10:37:38;;;;;;;6.43;1.50;;;;;;;16.77;100.00;98503.25;5006846;28;20032;-73
2022/10/24 10:40:22;;;;;;;6.90;1.33;;;;;;;16.71;100.00;98511.59;5007826;28;20103;-74
2022/10/24 10:43:05;;;;;;;4.95;1.48;;;;;;;16.69;100.00;98503.66;5012530;28;20491;-73
2022/10/24 10:45:33;;;;;;;9.73;1.90;;;;;;;16.74;100.00;98498.28;5012266;28;20042;-73
2022/10/24 10:48:32;;;;;;;8.65;1.95;;;;;;;16.84;100.00;98505.81;5011067;28;20435;-73
2022/10/24 10:51:07;;;;;;;5.35;1.38;;;;;;;16.88;100.00;98509.69;5007025;28;20029;-73
2022/10/24 10:53:44;;;;;;;8.00;1.48;;;;;;;17.05;100.00;98504.19;5010513;28;20030;-73
2022/10/24 10:56:19;;;;;;;7.43;1.58;;;;;;;17.20;100.00;98500.84;5010388;28;20042;-73
2022/10/24 10:59:22;;;;;;;7.47;1.33;;;;;;;17.27;100.00;98506.94;5019898;28;20444;-73
2022/10/24 11:02:15;;;;;;;5.95;1.40;;;;;;;17.46;100.00;98496.50;5023674;28;20552;-73
2022/10/24 11:05:03;;;;;;;9.35;1.60;;;;;;;17.57;100.00;98505.66;5038766;28;20026;-72
2022/10/24 11:07:43;;;;;;;10.63;1.50;;;;;;;17.70;100.00;98503.34;5017946;28;20030;-72
2022/10/24 11:10:13;;;;;;;10.95;1.90;;;;;;;17.64;100.00;98512.56;5034442;28;20030;-73
2022/10/24 11:12:42;;;;;;;8.15;1.45;;;;;;;17.38;100.00;98496.97;5025473;28;20064;-72
2022/10/24 11:15:28;;;;;;;12.02;1.30;;;;;;;17.34;100.00;98518.50;5032047;28;20033;-71
2022/10/24 11:18:16;;;;;;;7.70;1.45;;;;;;;17.11;100.00;98513.28;5017976;28;20041;-72
2022/10/24 11:20:47;;;;;;;4.97;1.30;;;;;;;17.09;100.00;98521.75;5011561;28;20068;-73
2022/10/24 11:23:23;;;;;;;2.47;1.10;;;;;;;17.24;100.00;98529.34;5018270;28;20025;-74
2022/10/24 11:26:00;;;;;;;3.75;1.15;;;;;;;17.32;100.00;98517.94;5007656;28;20056;-74
2022/10/24 11:28:49;;;;;;;5.32;1.40;;;;;;;17.31;100.00;98514.38;5007011;28;20026;-73
2022/10/24 11:31:22;;;;;;;7.03;2.22;;;;;;;17.38;100.00;98521.56;5002073;28;20036;-73
2022/10/24 11:33:59;;;;;;;4.13;1.30;;;;;;;17.48;100.00;98519.78;5008464;28;20578;-72
2022/10/24 11:36:41;;;;;;;7.80;1.30;;;;;;;17.47;100.00;98520.84;5009131;28;20029;-73